Etusivu
METAR-TAF:

METAR-TAF

Lentoasemat :

Chehalis, Washington, Yhdysvallat

Leveyspiiri: 46-40-37N, Pituuspiiri: 122-58-58W, korkeus merenpinnasta: 54 m

Tämänhetkinen sää

Tämä raportti tehtiin 29 minuuttia sitten, kello 02.55 UTC
Tuuli 4 kn etelästä
Lämpötila 12°C
Kosteus 100%
Ilmanpaine 1004 hPa
Näkyvyys: 16.1 km
Hajonneita pilviä 1300 ft:n korkeudessa
Pilvistä 3700 ft:n korkeudessa

METAR: KCLS 190255Z AUTO 19004KT 10SM BKN013 OVC037 12/12 A2965 RMK AO2

Aika: 19:24 (03:24 UTC)


TAF: puuttuu

Säähavainnot ja -ennusteet yli 4000 lentoasemalta (METAR- ja TAF-raportit).

Käytössä olevat sääasemat on merkitty karttaan keltaisilla ja punaisilla pisteillä.

Aseta hiiri pisteen päälle nähdäksesi sääaseman nimen.

Klikkaa sitten nähdäksesi säähavainnot ja -ennusteet.

Kartan vaihtaminen: klikkaa mustalla rastilla varustettuja vihreitä pisteitä, niin voit zoomata sisään; viivalla varustettua vihreää pistettä, niin voit zoomata ulos tai vihreitä nuolia, niin pääset viereisille kartoille.


METAR-TAF: